EGNM Airport Information

Runway Information
Runway 14 Length 7382 ft width 150 ft
Elevation 673 ft Threshold 958 ft Heading 138
Runway 32 Length 7382 ft Width 150 ft
Elevation 662 ft Threshold 962 ft Heading 318
Airport Frequencies
Type APP Name APP Frequency 123.75 MHZ
Type ATIS Name ATIS Frequency 118.025 MHZ
Type ILS Rw 32/ Name Frequency 110.9 MHZ
Type TWR Name TWR Frequency 120.3 MHZ
Airport Navaids
Type NDB Name Leeds Bradford Frequency 403 KHZ
Airport Weather Information & NOTAM
ADDS - METARS form results

(0834 UTC 18 July 2018)
 
METAR text: EGNM 180820Z 17004KT 120V230 9999 FEW032 17/09 Q1018
Conditions at: EGNM (LEEDS AND BRADFO, GB) observed 0820 UTC 18 July 2018
Temperature: 17.0°C (63°F)
Dewpoint: 9.0°C (48°F) [RH = 59%]
Pressure (altimeter): 30.06 inches Hg (1018.0 mb)
Winds: from the S (170 degrees) at 5 MPH (4 knots; 2.1 m/s)
Visibility: 6 or more miles (10+ km)
Ceiling: at least 12,000 feet AGL
Clouds: few clouds at 3200 feet AGL
Weather: no significant weather observed at this time

METAR text: EGNM 180750Z 13004KT 070V190 9999 FEW032 16/09 Q1018
Conditions at: EGNM (LEEDS AND BRADFO, GB) observed 0750 UTC 18 July 2018
Temperature: 16.0°C (61°F)
Dewpoint: 9.0°C (48°F) [RH = 63%]
Pressure (altimeter): 30.06 inches Hg (1018.0 mb)
Winds: from the SE (130 degrees) at 5 MPH (4 knots; 2.1 m/s)
Visibility: 6 or more miles (10+ km)
Ceiling: at least 12,000 feet AGL
Clouds: few clouds at 3200 feet AGL
Weather: no significant weather observed at this time